createdAt,value
2023-05-14T00:07:09.786Z,1020.3
2023-05-14T00:22:06.305Z,1020.3
2023-05-14T00:37:02.305Z,1020.1
2023-05-14T00:51:58.297Z,1020
2023-05-14T01:06:54.635Z,1020.2
2023-05-14T01:21:50.905Z,1020.1
2023-05-14T01:36:46.828Z,1020
2023-05-14T01:51:43.201Z,1020.1
2023-05-14T02:06:39.361Z,1020
2023-05-14T02:21:35.604Z,1020
2023-05-14T02:36:31.626Z,1019.8
2023-05-14T02:51:27.926Z,1019.7
2023-05-14T03:06:24.349Z,1019.6
2023-05-14T03:21:20.639Z,1019.6
2023-05-14T03:36:16.884Z,1019.5
2023-05-14T03:51:12.820Z,1019.6
2023-05-14T04:06:08.887Z,1019.6
2023-05-14T04:21:05.635Z,1019.5
2023-05-14T04:36:01.689Z,1019.6
2023-05-14T04:50:58.317Z,1019.6
2023-05-14T05:05:54.905Z,1019.7
2023-05-14T05:20:51.320Z,1019.7
2023-05-14T05:35:47.855Z,1019.8
2023-05-14T05:50:44.247Z,1019.7
2023-05-14T06:05:40.717Z,1019.8
2023-05-14T06:20:37.199Z,1019.6
2023-05-14T06:35:33.701Z,1019.5
2023-05-14T06:50:30.262Z,1019.5
2023-05-14T07:05:26.619Z,1019.4
2023-05-14T07:20:23.159Z,1019.4
2023-05-14T07:35:19.217Z,1019.2
2023-05-14T07:50:15.161Z,1019
2023-05-14T08:05:12.063Z,1018.8
2023-05-14T08:20:08.881Z,1018.7
2023-05-14T08:35:05.527Z,1018.6
2023-05-14T08:50:02.423Z,1018.5
2023-05-14T09:04:58.832Z,1018.4
2023-05-14T09:19:55.547Z,1018.3
2023-05-14T09:34:52.686Z,1018.2
2023-05-14T09:49:49.425Z,1018.1
2023-05-14T10:04:46.001Z,1018
2023-05-14T10:19:42.414Z,1017.8
2023-05-14T10:34:38.596Z,1017.7
2023-05-14T10:49:42.666Z,1017.5
2023-05-14T11:04:31.139Z,1017.4
2023-05-14T11:19:26.726Z,1017.3
2023-05-14T11:34:23.491Z,1017.1
2023-05-14T12:04:15.816Z,1016.9
2023-05-14T12:19:11.771Z,1016.8
2023-05-14T12:34:08.158Z,1016.7
2023-05-14T12:49:03.934Z,1016.6
2023-05-14T13:04:00.194Z,1016.4
2023-05-14T13:18:56.428Z,1016.2
2023-05-14T13:33:52.388Z,1016.1
2023-05-14T13:48:49.170Z,1015.8
2023-05-14T14:03:47.017Z,1015.6
2023-05-14T14:18:43.674Z,1015.5
2023-05-14T14:33:39.210Z,1015.4
2023-05-14T14:48:34.694Z,1015.4
2023-05-14T15:03:30.617Z,1015.3
2023-05-14T15:18:27.328Z,1015.1
2023-05-14T15:33:23.815Z,1015.1
2023-05-14T15:48:19.878Z,1014.9
2023-05-14T16:03:16.287Z,1014.9
2023-05-14T16:18:12.148Z,1014.8
2023-05-14T16:33:08.720Z,1014.8
2023-05-14T16:48:04.177Z,1014.8
2023-05-14T17:03:00.363Z,1014.8
2023-05-14T17:17:56.498Z,1014.7
2023-05-14T17:32:52.196Z,1014.8
2023-05-14T17:47:48.130Z,1015
2023-05-14T18:02:44.060Z,1015.1
2023-05-14T18:17:39.975Z,1015.2
2023-05-14T18:32:35.683Z,1015.3
2023-05-14T18:47:31.100Z,1015.3
2023-05-14T19:02:27.016Z,1015.5
2023-05-14T19:17:22.681Z,1015.6
2023-05-14T19:32:18.501Z,1015.9
2023-05-14T19:47:14.507Z,1016.1
2023-05-14T20:02:09.955Z,1016.2
2023-05-14T20:17:06.095Z,1016.1
2023-05-14T20:32:02.156Z,1016
2023-05-14T20:46:58.244Z,1015.9
2023-05-14T21:01:54.510Z,1015.9
2023-05-14T21:16:50.681Z,1015.8
2023-05-14T21:31:46.684Z,1015.8
2023-05-14T21:46:42.901Z,1015.8
2023-05-14T22:01:55.979Z,1015.9
2023-05-14T22:16:34.589Z,1015.9
2023-05-14T22:31:30.557Z,1015.9
2023-05-14T22:46:26.524Z,1015.9
2023-05-14T23:01:22.405Z,1015.8
2023-05-14T23:16:18.394Z,1015.7
2023-05-14T23:31:14.872Z,1015.6
2023-05-14T23:46:11.050Z,1015.6
